DLH5UY EDDF-EDDL
Flight info
| Callsign | DLH5UY |
|---|---|
| Flight time | N/A |
| Altitude | 18000 |
| Route | MARUN6E MARUN Y152 ARPEG Z850 ADEMI T854 DOMUX DOMUX1A |
| Aircraft | A21N/M-SDE2E3FGHIRWXY/LB1 |
Departure
| Time | 2026-04-18 06:09 |
|---|---|
| Airport | Frankfurt Main Airport (EDDF) |
Arrival
| Time | N/A |
|---|---|
| Airport | Düsseldorf Airport (EDDL) |
| Time | Latitude | Longitude | Altitude | Speed | Heading |
|---|---|---|---|---|---|
| 2026-04-18 05:46 | 50.04406 | 8.56220 | 364 ft | 0 kts | 159° |
| 2026-04-18 05:58 | 50.04424 | 8.56210 | 363 ft | 4 kts | 162° |
| 2026-04-18 05:58 | 50.04450 | 8.56201 | 364 ft | 4 kts | 178° |
| 2026-04-18 05:59 | 50.04472 | 8.56208 | 363 ft | 4 kts | 230° |
| 2026-04-18 05:59 | 50.04476 | 8.56216 | 368 ft | 2 kts | 250° |
| 2026-04-18 05:59 | 50.04468 | 8.56180 | 368 ft | 4 kts | 250° |
| 2026-04-18 05:59 | 50.04458 | 8.56140 | 361 ft | 4 kts | 250° |
| 2026-04-18 06:00 | 50.04455 | 8.56125 | 364 ft | 4 kts | 249° |
| 2026-04-18 06:02 | 50.04454 | 8.56123 | 363 ft | 1 kts | 249° |
| 2026-04-18 06:02 | 50.04449 | 8.56100 | 365 ft | 3 kts | 249° |
| 2026-04-18 06:03 | 50.04439 | 8.56058 | 364 ft | 5 kts | 246° |
| 2026-04-18 06:03 | 50.04406 | 8.56025 | 364 ft | 7 kts | 186° |
| 2026-04-18 06:03 | 50.04354 | 8.56046 | 363 ft | 8 kts | 163° |
| 2026-04-18 06:03 | 50.04301 | 8.56090 | 366 ft | 10 kts | 116° |
| 2026-04-18 06:04 | 50.04289 | 8.56199 | 360 ft | 11 kts | 129° |
| 2026-04-18 06:04 | 50.04214 | 8.56254 | 361 ft | 13 kts | 158° |
| 2026-04-18 06:04 | 50.04159 | 8.56288 | 362 ft | 8 kts | 158° |
| 2026-04-18 06:04 | 50.04151 | 8.56372 | 360 ft | 10 kts | 74° |
| 2026-04-18 06:05 | 50.04175 | 8.56484 | 361 ft | 12 kts | 68° |
| 2026-04-18 06:05 | 50.04209 | 8.56615 | 363 ft | 14 kts | 68° |
| 2026-04-18 06:05 | 50.04245 | 8.56767 | 366 ft | 16 kts | 71° |
| 2026-04-18 06:05 | 50.04282 | 8.56938 | 365 ft | 17 kts | 70° |
| 2026-04-18 06:06 | 50.04326 | 8.57123 | 372 ft | 19 kts | 70° |
| 2026-04-18 06:06 | 50.04374 | 8.57321 | 371 ft | 20 kts | 69° |
| 2026-04-18 06:06 | 50.04390 | 8.57391 | 370 ft | 6 kts | 70° |
| 2026-04-18 06:06 | 50.04393 | 8.57402 | 371 ft | 0 kts | 69° |
| 2026-04-18 06:07 | 50.04397 | 8.57420 | 367 ft | 4 kts | 69° |
| 2026-04-18 06:07 | 50.04412 | 8.57477 | 368 ft | 8 kts | 69° |
| 2026-04-18 06:07 | 50.04432 | 8.57576 | 371 ft | 12 kts | 91° |
| 2026-04-18 06:08 | 50.04366 | 8.57668 | 369 ft | 14 kts | 160° |
| 2026-04-18 06:08 | 50.04281 | 8.57692 | 370 ft | 11 kts | 216° |
| 2026-04-18 06:08 | 50.04266 | 8.57659 | 367 ft | 0 kts | 247° |
| 2026-04-18 06:08 | 50.04197 | 8.57387 | 370 ft | 63 kts | 250° |
| 2026-04-18 06:09 | 50.03957 | 8.56369 | 362 ft | 135 kts | 249° |
| 2026-04-18 06:09 | 50.03569 | 8.54737 | 419 ft | 176 kts | 249° |
| 2026-04-18 06:09 | 50.03137 | 8.53008 | 1163 ft | 169 kts | 248° |
| 2026-04-18 06:09 | 50.02669 | 8.51298 | 1747 ft | 178 kts | 249° |
| 2026-04-18 06:10 | 50.02378 | 8.49352 | 2234 ft | 192 kts | 269° |
| 2026-04-18 06:10 | 50.02531 | 8.47221 | 2792 ft | 205 kts | 283° |
| 2026-04-18 06:10 | 50.02927 | 8.45051 | 3480 ft | 212 kts | 284° |
| 2026-04-18 06:10 | 50.02995 | 8.42697 | 3951 ft | 230 kts | 259° |
| 2026-04-18 06:11 | 50.02656 | 8.40137 | 4381 ft | 253 kts | 259° |
| 2026-04-18 06:11 | 50.02644 | 8.37343 | 5056 ft | 265 kts | 282° |
| 2026-04-18 06:11 | 50.03449 | 8.34763 | 5892 ft | 270 kts | 309° |
| 2026-04-18 06:11 | 50.04931 | 8.32943 | 6763 ft | 274 kts | 329° |
| 2026-04-18 06:12 | 50.06610 | 8.31571 | 7601 ft | 278 kts | 332° |
| 2026-04-18 06:12 | 50.08342 | 8.30199 | 8434 ft | 281 kts | 331° |
| 2026-04-18 06:12 | 50.10082 | 8.28789 | 9267 ft | 283 kts | 331° |
| 2026-04-18 06:12 | 50.11921 | 8.27634 | 10068 ft | 289 kts | 347° |
| 2026-04-18 06:13 | 50.13946 | 8.27587 | 10673 ft | 300 kts | 11° |
| 2026-04-18 06:13 | 50.15933 | 8.28867 | 10995 ft | 320 kts | 28° |
| 2026-04-18 06:13 | 50.17924 | 8.30654 | 11282 ft | 339 kts | 29° |
| 2026-04-18 06:13 | 50.20029 | 8.32554 | 11561 ft | 358 kts | 28° |
| 2026-04-18 06:14 | 50.22201 | 8.34482 | 12112 ft | 366 kts | 28° |
| 2026-04-18 06:14 | 50.24436 | 8.36457 | 12827 ft | 371 kts | 28° |
| 2026-04-18 06:14 | 50.26700 | 8.38428 | 13556 ft | 375 kts | 27° |
| 2026-04-18 06:14 | 50.29018 | 8.40348 | 14235 ft | 378 kts | 22° |
| 2026-04-18 06:15 | 50.31476 | 8.41843 | 14881 ft | 380 kts | 17° |
| 2026-04-18 06:15 | 50.33982 | 8.43221 | 15526 ft | 384 kts | 17° |
| 2026-04-18 06:15 | 50.36516 | 8.44599 | 16160 ft | 388 kts | 17° |
| 2026-04-18 06:15 | 50.39077 | 8.45990 | 16786 ft | 391 kts | 17° |
| 2026-04-18 06:16 | 50.41673 | 8.47381 | 17412 ft | 395 kts | 17° |
| 2026-04-18 06:16 | 50.44291 | 8.48804 | 17970 ft | 400 kts | 17° |
| 2026-04-18 06:16 | 50.46923 | 8.50239 | 18181 ft | 399 kts | 16° |
| 2026-04-18 06:16 | 50.49484 | 8.51524 | 18216 ft | 387 kts | 15° |
| 2026-04-18 06:17 | 50.52054 | 8.52753 | 18211 ft | 386 kts | 14° |
| 2026-04-18 06:17 | 50.54627 | 8.53978 | 18207 ft | 386 kts | 14° |
| 2026-04-18 06:17 | 50.57193 | 8.55199 | 18205 ft | 384 kts | 14° |
| 2026-04-18 06:17 | 50.59746 | 8.56414 | 18204 ft | 383 kts | 14° |
| 2026-04-18 06:18 | 50.62294 | 8.57645 | 18204 ft | 383 kts | 14° |
| 2026-04-18 06:18 | 50.64851 | 8.58868 | 18204 ft | 383 kts | 14° |
| 2026-04-18 06:18 | 50.67400 | 8.60099 | 18201 ft | 383 kts | 14° |
| 2026-04-18 06:18 | 50.69958 | 8.61327 | 18206 ft | 383 kts | 14° |
| 2026-04-18 06:19 | 50.72508 | 8.62558 | 18206 ft | 383 kts | 14° |
| 2026-04-18 06:19 | 50.75058 | 8.63788 | 18203 ft | 384 kts | 14° |
| 2026-04-18 06:19 | 50.77623 | 8.64942 | 18199 ft | 382 kts | 9° |
| 2026-04-18 06:19 | 50.80251 | 8.65207 | 18196 ft | 377 kts | 352° |
| 2026-04-18 06:20 | 50.82762 | 8.64323 | 18199 ft | 373 kts | 336° |
| 2026-04-18 06:20 | 50.84972 | 8.62256 | 18198 ft | 368 kts | 317° |
| 2026-04-18 06:20 | 50.86688 | 8.59272 | 18208 ft | 366 kts | 307° |
| 2026-04-18 06:20 | 50.88257 | 8.56097 | 18214 ft | 366 kts | 306° |
| 2026-04-18 06:21 | 50.89850 | 8.52938 | 18208 ft | 366 kts | 307° |
| 2026-04-18 06:21 | 50.91463 | 8.49816 | 18206 ft | 366 kts | 308° |
| 2026-04-18 06:21 | 50.93103 | 8.46721 | 18209 ft | 366 kts | 308° |
| 2026-04-18 06:21 | 50.94742 | 8.43626 | 18211 ft | 366 kts | 308° |
| 2026-04-18 06:22 | 50.96386 | 8.40524 | 18206 ft | 366 kts | 308° |
| 2026-04-18 06:22 | 50.98029 | 8.37429 | 18209 ft | 366 kts | 308° |
| 2026-04-18 06:22 | 50.99675 | 8.34339 | 18212 ft | 366 kts | 308° |
| 2026-04-18 06:22 | 51.01376 | 8.31329 | 18206 ft | 368 kts | 315° |
| 2026-04-18 06:23 | 51.03451 | 8.28939 | 18210 ft | 370 kts | 327° |
| 2026-04-18 06:23 | 51.05699 | 8.26927 | 18215 ft | 371 kts | 329° |
| 2026-04-18 06:23 | 51.07926 | 8.24990 | 18049 ft | 367 kts | 329° |
| 2026-04-18 06:23 | 51.10178 | 8.23020 | 17802 ft | 370 kts | 329° |
| 2026-04-18 06:24 | 51.12426 | 8.21036 | 17548 ft | 368 kts | 328° |
| 2026-04-18 06:24 | 51.14665 | 8.19051 | 17287 ft | 367 kts | 328° |
| 2026-04-18 06:24 | 51.16894 | 8.17067 | 17028 ft | 366 kts | 328° |
| 2026-04-18 06:24 | 51.19108 | 8.15091 | 16772 ft | 364 kts | 328° |
| 2026-04-18 06:25 | 51.21317 | 8.13118 | 16514 ft | 363 kts | 328° |